Terminal Aerodrome Forecast
Issued by NWS Kansas City/Pleasant Hill, MO

Home | Current Version | Previous Version | Text Only | Print | Product List | Glossary On
Versions: 1 2 3 4 5 6 7 8 9 10 11 12 13 14 15 16
000
FTUS43 KEAX 291536 AAB
TAFMCI
TAF AMD
KMCI 291536Z 2916/3012 36005KT 6SM BR OVC006
     FM291800 36006KT P6SM BKN015
     FM292100 02006KT P6SM SCT025=

USA.gov is the U.S. government's official web portal to all federal, state and local government web resources and services.